Airfield :
LOGIN :

Register | Disclaimer

   EN    FR    IT 

 










Legend :    VFR   Marginal VFR   IFR   Intensive IFR   Very Intensive IFR
Visi :
Ceiling :
>= 8 km
>= 3000ft
5 to 8 km
1000 to 3000 ft
1500m to 5 km
500 to 1000 ft
800 to 1500m
200 to 500 ft
< 800m
< 200 ft
Symbols :   Thunderstorms  Fog  Heavy snow  Heavy precipitations  Wind > 20 kt
SIGMETs :     Misc.  Thunderstorms  Icing  Turbulence  Mountain Waves  Volcanic Ashes







- Airport Elevation : 157 ft
- IATA code : LIL
- Download approach charts


LFQQ - Lille Lesquin

CURRENT METAR :
  • 200630Z AUTO 21009KT 9999 BKN026 OVC110 16/13 Q1011 TEMPO 4000 RA BKN011

EXPIRED METARs :
  • 200600Z AUTO 22010KT 9999 OVC024 16/13 Q1011 TEMPO 4000 RA BKN011
  • 200530Z AUTO 22007KT 9999 OVC021 15/13 Q1011 TEMPO 4000 RA OVC008
  • 200500Z AUTO 23010KT 9999 OVC018 15/13 Q1011 TEMPO 4000 RA OVC008
  • 200430Z AUTO 22007KT 190V250 9999 OVC017 15/13 Q1011 TEMPO 4000 RA OVC008
  • 200400Z AUTO 20005KT 9000 FEW018 BKN110 15/13 Q1011 TEMPO 4000 RA OVC008

TAF TAF LFQQ
Valid from the 20 at 06:00 until the 21 at 12:00 UTC


200500Z 2006/2112 21007KT 9999 BKN020
TEMPO 2006/2009 4000 RA BKN011
BECMG 2009/2011 27012KT
PROB30 2100/2106 BKN005
ATIS : +33 3 20 16 19 54
No reported NOTAMs for that airfield.



MET'MAP, your aeronautical weather chart ! - Copyright ORBIFLY December 2007 - Disclaimer

ORBIFLY MET'MAP TEAM :

Programming & Development : Alexandra Zaïnal
Concept & Development : Baudouin d'Aumeries
Co-Development & Prog : Marc-Olivier Méhu
Technical & hardware support : Manuel Goepfert

Contact : metmap@orbifly.com




SOURCES & CREDITS :

   NOAA